Time,TemperatureF,DewpointF,PressureIn,WindDirection,WindDirectionDegrees,WindSpeedMPH,WindSpeedGustMPH,Humidity,HourlyPrecipIn,Conditions,Clouds,dailyrainin,SoftwareType,DateUTC
2013-03-11 00:08:00,33.0,17.0,30.19,NW,315,0.0,-999.0,53,-99.99,,,0.00,weatherlink.com 1.10,2013-03-11 06:08:00,
2013-03-11 00:23:00,32.2,17.0,30.20,NW,315,0.0,-999.0,54,-99.99,,,0.00,weatherlink.com 1.10,2013-03-11 06:23:00,
2013-03-11 00:38:00,31.5,17.0,30.21,NW,315,0.0,-999.0,55,-99.99,,,0.00,weatherlink.com 1.10,2013-03-11 06:38:00,
2013-03-11 00:53:00,30.8,17.0,30.21,NW,315,0.0,-999.0,58,-99.99,,,0.00,weatherlink.com 1.10,2013-03-11 06:53:00,
2013-03-11 01:08:00,30.3,18.0,30.22,NW,315,0.0,-999.0,60,-99.99,,,0.00,weatherlink.com 1.10,2013-03-11 07:08:00,
2013-03-11 01:23:00,29.7,18.0,30.22,NW,315,0.0,-999.0,61,-99.99,,,0.00,weatherlink.com 1.10,2013-03-11 07:23:00,
2013-03-11 01:38:00,29.3,18.0,30.22,NW,315,0.0,-999.0,63,-99.99,,,0.00,weatherlink.com 1.10,2013-03-11 07:38:00,
2013-03-11 01:53:00,28.9,18.0,30.22,NW,315,0.0,-999.0,63,-99.99,,,0.00,weatherlink.com 1.10,2013-03-11 07:53:00,
2013-03-11 02:08:00,28.6,18.0,30.23,NW,315,0.0,-999.0,65,-99.99,,,0.00,weatherlink.com 1.10,2013-03-11 08:08:00,
2013-03-11 02:23:00,28.5,18.0,30.23,NW,315,0.0,-999.0,66,-99.99,,,0.00,weatherlink.com 1.10,2013-03-11 08:23:00,
2013-03-11 02:38:00,28.5,18.0,30.23,NW,315,0.0,-999.0,66,-99.99,,,0.00,weatherlink.com 1.10,2013-03-11 08:38:00,
2013-03-11 02:53:00,28.5,18.0,30.22,NW,315,0.0,-999.0,66,-99.99,,,0.00,weatherlink.com 1.10,2013-03-11 08:53:00,
2013-03-11 03:08:00,28.2,18.0,30.22,NW,315,0.0,-999.0,66,-99.99,,,0.00,weatherlink.com 1.10,2013-03-11 09:08:00,
2013-03-11 03:23:00,27.7,18.0,30.22,NW,315,0.0,-999.0,67,-99.99,,,0.00,weatherlink.com 1.10,2013-03-11 09:23:00,
2013-03-11 03:38:00,27.4,18.0,30.21,NW,315,0.0,-999.0,68,-99.99,,,0.00,weatherlink.com 1.10,2013-03-11 09:38:00,
2013-03-11 03:53:00,27.0,18.0,30.20,NW,315,0.0,-999.0,69,-99.99,,,0.00,weatherlink.com 1.10,2013-03-11 09:53:00,
2013-03-11 04:08:00,26.7,18.0,30.20,NW,315,0.0,-999.0,70,-99.99,,,0.00,weatherlink.com 1.10,2013-03-11 10:08:00,
2013-03-11 04:23:00,26.3,18.0,30.20,NW,315,0.0,-999.0,71,-99.99,,,0.00,weatherlink.com 1.10,2013-03-11 10:23:00,
2013-03-11 04:38:00,26.4,19.0,30.19,NW,315,0.0,-999.0,72,-99.99,,,0.00,weatherlink.com 1.10,2013-03-11 10:38:00,
2013-03-11 04:53:00,26.4,18.0,30.20,NW,315,0.0,-999.0,71,-99.99,,,0.00,weatherlink.com 1.10,2013-03-11 10:53:00,
2013-03-11 05:08:00,26.2,18.0,30.19,NW,315,0.0,-999.0,71,-99.99,,,0.00,weatherlink.com 1.10,2013-03-11 11:08:00,
2013-03-11 05:23:00,25.7,18.0,30.19,NW,315,0.0,-999.0,71,-99.99,,,0.00,weatherlink.com 1.10,2013-03-11 11:23:00,
2013-03-11 05:38:00,25.2,17.0,30.19,NW,315,0.0,-999.0,72,-99.99,,,0.00,weatherlink.com 1.10,2013-03-11 11:38:00,
2013-03-11 05:53:00,24.9,18.0,30.20,NW,315,0.0,-999.0,74,-99.99,,,0.00,weatherlink.com 1.10,2013-03-11 11:53:00,
2013-03-11 06:08:00,24.7,18.0,30.20,NW,315,0.0,-999.0,75,-99.99,,,0.00,weatherlink.com 1.10,2013-03-11 12:08:00,
2013-03-11 06:23:00,24.5,18.0,30.20,NW,315,0.0,-999.0,75,-99.99,,,0.00,weatherlink.com 1.10,2013-03-11 12:23:00,
2013-03-11 06:38:00,24.2,18.0,30.20,NW,315,0.0,-999.0,76,-99.99,,,0.00,weatherlink.com 1.10,2013-03-11 12:38:00,
2013-03-11 06:53:00,23.9,17.0,30.20,NW,315,0.0,-999.0,76,-99.99,,,0.00,weatherlink.com 1.10,2013-03-11 12:53:00,
2013-03-11 07:08:00,23.5,17.0,30.19,NW,315,0.0,-999.0,76,-99.99,,,0.00,weatherlink.com 1.10,2013-03-11 13:08:00,
2013-03-11 07:23:00,23.1,17.0,30.19,NW,315,0.0,-999.0,77,-99.99,,,0.00,weatherlink.com 1.10,2013-03-11 13:23:00,
2013-03-11 07:38:00,22.9,17.0,30.19,NW,315,0.0,-999.0,77,-99.99,,,0.00,weatherlink.com 1.10,2013-03-11 13:38:00,
2013-03-11 07:53:00,22.6,17.0,30.20,NW,315,0.0,-999.0,79,-99.99,,,0.00,weatherlink.com 1.10,2013-03-11 13:53:00,
2013-03-11 08:08:00,23.0,18.0,30.20,NW,315,0.0,-999.0,81,-99.99,,,0.00,weatherlink.com 1.10,2013-03-11 14:08:00,
2013-03-11 08:23:00,24.4,19.0,30.21,NW,315,0.0,-999.0,81,-99.99,,,0.00,weatherlink.com 1.10,2013-03-11 14:23:00,
2013-03-11 08:38:00,26.3,20.0,30.22,NW,315,0.0,-999.0,77,-99.99,,,0.00,weatherlink.com 1.10,2013-03-11 14:38:00,
2013-03-11 08:53:00,28.3,20.0,30.23,NW,315,0.0,-999.0,72,-99.99,,,0.00,weatherlink.com 1.10,2013-03-11 14:53:00,
2013-03-11 09:08:00,30.5,21.0,30.23,NW,315,0.0,-999.0,67,-99.99,,,0.00,weatherlink.com 1.10,2013-03-11 15:08:00,
2013-03-11 09:23:00,33.0,22.0,30.23,NW,315,0.0,-999.0,63,-99.99,,,0.00,weatherlink.com 1.10,2013-03-11 15:23:00,
2013-03-11 09:38:00,36.6,22.0,30.23,NW,315,0.0,-999.0,57,-99.99,,,0.00,weatherlink.com 1.10,2013-03-11 15:38:00,
2013-03-11 09:53:00,40.2,22.0,30.23,NW,315,0.0,-999.0,48,-99.99,,,0.00,weatherlink.com 1.10,2013-03-11 15:53:00,
2013-03-11 10:08:00,44.6,23.0,30.23,NW,315,0.0,-999.0,42,-99.99,,,0.00,weatherlink.com 1.10,2013-03-11 16:08:00,
2013-03-11 10:23:00,48.1,21.0,30.23,South,190,2.0,-999.0,35,-99.99,,,0.00,weatherlink.com 1.10,2013-03-11 16:23:00,
2013-03-11 10:38:00,50.4,21.0,30.23,ESE,121,1.0,-999.0,32,-99.99,,,0.00,weatherlink.com 1.10,2013-03-11 16:38:00,
2013-03-11 10:53:00,52.7,22.0,30.22,SE,128,0.0,-999.0,30,-99.99,,,0.00,weatherlink.com 1.10,2013-03-11 16:53:00,
2013-03-11 11:08:00,54.4,21.0,30.22,SW,221,0.0,-999.0,27,-99.99,,,0.00,weatherlink.com 1.10,2013-03-11 17:08:00,
2013-03-11 11:23:00,55.3,21.0,30.21,South,173,2.0,-999.0,26,-99.99,,,0.00,weatherlink.com 1.10,2013-03-11 17:23:00,
2013-03-11 11:53:00,56.7,20.0,30.20,WNW,286,0.0,-999.0,24,-99.99,,,0.00,weatherlink.com 1.10,2013-03-11 17:53:00,
2013-03-11 12:08:00,58.4,21.0,30.18,SSW,192,3.0,-999.0,23,-99.99,,,0.00,weatherlink.com 1.10,2013-03-11 18:08:00,
2013-03-11 12:23:00,58.9,20.0,30.17,SW,233,2.0,-999.0,22,-99.99,,,0.00,weatherlink.com 1.10,2013-03-11 18:23:00,
2013-03-11 12:38:00,59.4,20.0,30.16,South,176,4.0,-999.0,22,-99.99,,,0.00,weatherlink.com 1.10,2013-03-11 18:38:00,
2013-03-11 12:53:00,59.1,19.0,30.15,ESE,115,2.0,-999.0,21,-99.99,,,0.00,weatherlink.com 1.10,2013-03-11 18:53:00,
2013-03-11 13:08:00,60.1,20.0,30.14,South,173,1.0,-999.0,21,-99.99,,,0.00,weatherlink.com 1.10,2013-03-11 19:08:00,
2013-03-11 13:23:00,61.3,21.0,30.13,South,175,4.0,-999.0,21,-99.99,,,0.00,weatherlink.com 1.10,2013-03-11 19:23:00,
2013-03-11 13:38:00,62.0,21.0,30.12,SW,216,2.0,-999.0,21,-99.99,,,0.00,weatherlink.com 1.10,2013-03-11 19:38:00,
2013-03-11 13:53:00,63.5,20.0,30.10,South,175,2.0,-999.0,19,-99.99,,,0.00,weatherlink.com 1.10,2013-03-11 19:53:00,
2013-03-11 14:08:00,64.7,20.0,30.08,SW,232,0.0,-999.0,18,-99.99,,,0.00,weatherlink.com 1.10,2013-03-11 20:08:00,
2013-03-11 14:23:00,65.1,20.0,30.07,SW,226,1.0,-999.0,18,-99.99,,,0.00,weatherlink.com 1.10,2013-03-11 20:23:00,
2013-03-11 14:38:00,65.9,20.0,30.06,SSE,153,1.0,-999.0,17,-99.99,,,0.00,weatherlink.com 1.10,2013-03-11 20:38:00,
2013-03-11 14:53:00,66.5,19.0,30.06,WNW,282,2.0,-999.0,16,-99.99,,,0.00,weatherlink.com 1.10,2013-03-11 20:53:00,
2013-03-11 15:08:00,67.7,18.0,30.05,NW,304,0.0,-999.0,15,-99.99,,,0.00,weatherlink.com 1.10,2013-03-11 21:08:00,
2013-03-11 15:23:00,68.9,16.0,30.04,NNE,30,0.0,-999.0,13,-99.99,,,0.00,weatherlink.com 1.10,2013-03-11 21:23:00,
2013-03-11 15:38:00,69.5,16.0,30.03,NNE,15,2.0,-999.0,13,-99.99,,,0.00,weatherlink.com 1.10,2013-03-11 21:38:00,
2013-03-11 15:53:00,69.8,15.0,30.02,WNW,294,1.0,-999.0,12,-99.99,,,0.00,weatherlink.com 1.10,2013-03-11 21:53:00,
2013-03-11 16:08:00,69.2,16.0,30.02,NW,311,0.0,-999.0,13,-99.99,,,0.00,weatherlink.com 1.10,2013-03-11 22:08:00,
2013-03-11 16:23:00,68.8,14.0,30.01,WNW,294,0.0,-999.0,12,-99.99,,,0.00,weatherlink.com 1.10,2013-03-11 22:23:00,
2013-03-11 16:38:00,67.6,15.0,30.00,NW,325,0.0,-999.0,13,-99.99,,,0.00,weatherlink.com 1.10,2013-03-11 22:38:00,
2013-03-11 16:53:00,66.8,12.0,30.00,West,265,0.0,-999.0,12,-99.99,,,0.00,weatherlink.com 1.10,2013-03-11 22:53:00,
2013-03-11 17:08:00,65.9,10.0,30.00,NW,319,0.0,-999.0,11,-99.99,,,0.00,weatherlink.com 1.10,2013-03-11 23:08:00,
2013-03-11 17:23:00,65.0,9.0,30.00,WNW,302,0.0,-999.0,11,-99.99,,,0.00,weatherlink.com 1.10,2013-03-11 23:23:00,
2013-03-11 17:38:00,64.5,9.0,30.00,NW,314,5.0,-999.0,11,-99.99,,,0.00,weatherlink.com 1.10,2013-03-11 23:38:00,
2013-03-11 17:53:00,64.3,10.0,29.99,West,273,0.0,-999.0,12,-99.99,,,0.00,weatherlink.com 1.10,2013-03-11 23:53:00,
2013-03-11 18:08:00,63.6,10.0,29.99,NW,309,0.0,-999.0,12,-99.99,,,0.00,weatherlink.com 1.10,2013-03-12 00:08:00,
2013-03-11 18:23:00,62.6,11.0,30.00,NNW,346,1.0,-999.0,13,-99.99,,,0.00,weatherlink.com 1.10,2013-03-12 00:23:00,
2013-03-11 18:38:00,61.6,12.0,30.00,NW,308,2.0,-999.0,14,-99.99,,,0.00,weatherlink.com 1.10,2013-03-12 00:38:00,
2013-03-11 18:53:00,60.4,11.0,30.00,WNW,302,1.0,-999.0,14,-99.99,,,0.00,weatherlink.com 1.10,2013-03-12 00:53:00,
2013-03-11 19:08:00,59.3,11.0,30.00,NW,316,2.0,-999.0,15,-99.99,,,0.00,weatherlink.com 1.10,2013-03-12 01:08:00,
2013-03-11 19:23:00,58.1,12.0,30.00,NNW,342,0.0,-999.0,16,-99.99,,,0.00,weatherlink.com 1.10,2013-03-12 01:23:00,
2013-03-11 19:38:00,56.8,12.0,30.00,NNW,342,0.0,-999.0,17,-99.99,,,0.00,weatherlink.com 1.10,2013-03-12 01:38:00,
2013-03-11 19:53:00,55.3,12.0,30.01,NW,321,0.0,-999.0,18,-99.99,,,0.00,weatherlink.com 1.10,2013-03-12 01:53:00,
2013-03-11 20:08:00,54.8,13.0,30.01,NW,312,0.0,-999.0,19,-99.99,,,0.00,weatherlink.com 1.10,2013-03-12 02:08:00,
2013-03-11 20:23:00,54.2,14.0,30.01,NW,321,0.0,-999.0,20,-99.99,,,0.00,weatherlink.com 1.10,2013-03-12 02:23:00,
2013-03-11 20:38:00,53.6,14.0,30.02,North,349,0.0,-999.0,21,-99.99,,,0.00,weatherlink.com 1.10,2013-03-12 02:38:00,
2013-03-11 20:53:00,52.7,14.0,30.02,NE,36,1.0,-999.0,21,-99.99,,,0.00,weatherlink.com 1.10,2013-03-12 02:53:00,
2013-03-11 21:08:00,52.1,15.0,30.04,NNE,26,0.0,-999.0,23,-99.99,,,0.00,weatherlink.com 1.10,2013-03-12 03:08:00,
2013-03-11 21:23:00,51.7,17.0,30.04,NNE,22,1.0,-999.0,25,-99.99,,,0.00,weatherlink.com 1.10,2013-03-12 03:23:00,
2013-03-11 21:38:00,51.2,18.0,30.05,NNW,340,4.0,-999.0,27,-99.99,,,0.00,weatherlink.com 1.10,2013-03-12 03:38:00,
2013-03-11 21:53:00,50.8,19.0,30.06,NNW,335,2.0,-999.0,29,-99.99,,,0.00,weatherlink.com 1.10,2013-03-12 03:53:00,
2013-03-11 22:08:00,50.5,19.0,30.06,NNW,345,0.0,-999.0,29,-99.99,,,0.00,weatherlink.com 1.10,2013-03-12 04:08:00,
2013-03-11 22:23:00,49.8,20.0,30.06,NNW,336,0.0,-999.0,31,-99.99,,,0.00,weatherlink.com 1.10,2013-03-12 04:23:00,
2013-03-11 22:38:00,49.2,20.0,30.06,NNW,328,0.0,-999.0,32,-99.99,,,0.00,weatherlink.com 1.10,2013-03-12 04:38:00,
2013-03-11 22:53:00,48.9,21.0,30.07,NNW,345,1.0,-999.0,33,-99.99,,,0.00,weatherlink.com 1.10,2013-03-12 04:53:00,
2013-03-11 23:08:00,48.7,21.0,30.07,NNW,345,0.0,-999.0,33,-99.99,,,0.00,weatherlink.com 1.10,2013-03-12 05:08:00,
2013-03-11 23:23:00,48.2,20.0,30.08,NW,305,0.0,-999.0,33,-99.99,,,0.00,weatherlink.com 1.10,2013-03-12 05:23:00,
2013-03-11 23:38:00,47.8,21.0,30.07,WNW,291,0.0,-999.0,34,-99.99,,,0.00,weatherlink.com 1.10,2013-03-12 05:38:00,
2013-03-11 23:53:00,47.3,21.0,30.07,WNW,291,0.0,-999.0,35,-99.99,,,0.00,weatherlink.com 1.10,2013-03-12 05:53:00,